Time;durP1;ratioP1;P1;durP2;ratioP2;P2;SDS_P1;SDS_P2;PMS_P1;PMS_P2;Temp;Humidity;BMP_temperature;BMP_pressure;BME280_temperature;BME280_humidity;BME280_pressure;Samples;Min_cycle;Max_cycle;Signal;HPM_P1;HPM_P2
2021/03/13 00:00:11;;;;;;;4.93;1.40;;;;;;;;;;1036055;28;20021;-45
2021/03/13 00:00:41;;;;;;;6.05;1.63;;;;;;;;;;1032569;28;20022;-48
2021/03/13 00:01:12;;;;;;;6.03;1.80;;;;;;;;;;1032153;28;20094;-49
2021/03/13 00:01:42;;;;;;;4.70;1.37;;;;;;;;;;1028175;28;20011;-46
2021/03/13 00:02:12;;;;;;;4.47;1.30;;;;;;;;;;1028096;28;20011;-46
2021/03/13 00:02:43;;;;;;;7.67;1.80;;;;;;;;;;1028024;28;20019;-45
2021/03/13 00:03:14;;;;;;;5.47;1.63;;;;;;;;;;1028041;28;20019;-47
2021/03/13 00:03:44;;;;;;;5.10;1.60;;;;;;;;;;1031887;28;20006;-45
2021/03/13 00:04:14;;;;;;;5.87;2.10;;;;;;;;;;1028110;28;20026;-48
2021/03/13 00:04:45;;;;;;;4.53;1.57;;;;;;;;;;1032377;28;20006;-46
2021/03/13 00:05:41;;;;;;;7.83;2.00;;;;;;;;;;1032247;28;20092;-45
2021/03/13 00:06:12;;;;;;;6.95;1.52;;;;;;;;;;1033204;28;20029;-47
2021/03/13 00:06:42;;;;;;;5.47;1.57;;;;;;;;;;1036196;28;20013;-46
2021/03/13 00:07:12;;;;;;;4.40;1.50;;;;;;;;;;1036445;28;20006;-47
2021/03/13 00:07:42;;;;;;;4.30;1.50;;;;;;;;;;1036465;28;20017;-46
2021/03/13 00:08:13;;;;;;;4.37;1.50;;;;;;;;;;1036472;28;20367;-45
2021/03/13 00:08:43;;;;;;;4.93;1.60;;;;;;;;;;1036808;28;20002;-45
2021/03/13 00:09:13;;;;;;;5.03;1.67;;;;;;;;;;1036674;28;20097;-45
2021/03/13 00:09:45;;;;;;;5.37;1.47;;;;;;;;;;1036640;28;20014;-49
2021/03/13 00:10:15;;;;;;;5.70;1.67;;;;;;;;;;1036403;28;20029;-46
2021/03/13 00:10:45;;;;;;;6.87;1.57;;;;;;;;;;1036616;28;20466;-48
2021/03/13 00:11:16;;;;;;;7.73;2.17;;;;;;;;;;1036458;28;20108;-45
2021/03/13 00:11:46;;;;;;;5.50;1.40;;;;;;;;;;1036462;28;20073;-45
2021/03/13 00:12:17;;;;;;;5.03;1.87;;;;;;;;;;1036576;28;20642;-49
2021/03/13 00:12:47;;;;;;;4.50;1.70;;;;;;;;;;1036426;28;20371;-45
2021/03/13 00:13:17;;;;;;;6.70;1.77;;;;;;;;;;1036526;28;20069;-46
2021/03/13 00:13:47;;;;;;;5.77;1.70;;;;;;;;;;1036387;28;20013;-45
2021/03/13 00:14:18;;;;;;;5.50;1.47;;;;;;;;;;1035908;28;20014;-45
2021/03/13 00:14:48;;;;;;;3.80;1.47;;;;;;;;;;1036190;28;20058;-45
2021/03/13 00:15:18;;;;;;;6.63;1.60;;;;;;;;;;1036102;28;20009;-46
2021/03/13 00:15:48;;;;;;;4.87;1.50;;;;;;;;;;1036051;28;20014;-45
2021/03/13 00:16:19;;;;;;;4.83;1.43;;;;;;;;;;1036517;28;20085;-45
2021/03/13 00:16:49;;;;;;;6.67;1.57;;;;;;;;;;1035994;28;20522;-45
2021/03/13 00:17:19;;;;;;;4.60;1.40;;;;;;;;;;1036199;28;20092;-46
2021/03/13 00:17:51;;;;;;;5.20;1.60;;;;;;;;;;1036186;28;20018;-45
2021/03/13 00:18:21;;;;;;;4.95;1.30;;;;;;;;;;1036228;28;20036;-46
2021/03/13 00:18:51;;;;;;;5.30;1.50;;;;;;;;;;1036530;28;20006;-44
2021/03/13 00:19:22;;;;;;;5.30;1.50;;;;;;;;;;1036514;28;20025;-45
2021/03/13 00:19:52;;;;;;;9.43;1.70;;;;;;;;;;1036080;28;20459;-45
2021/03/13 00:20:23;;;;;;;5.67;1.83;;;;;;;;;;1036316;28;20006;-48
2021/03/13 00:20:53;;;;;;;4.55;1.50;;;;;;;;;;1032091;28;20093;-45
2021/03/13 00:21:24;;;;;;;4.40;1.77;;;;;;;;;;1032291;28;20018;-47
2021/03/13 00:21:54;;;;;;;6.07;1.60;;;;;;;;;;1036078;28;20084;-45
2021/03/13 00:22:24;;;;;;;5.53;1.50;;;;;;;;;;1036164;28;20149;-45
2021/03/13 00:22:55;;;;;;;4.97;1.57;;;;;;;;;;1036491;28;20411;-46
2021/03/13 00:23:25;;;;;;;7.47;1.77;;;;;;;;;;1036169;28;20390;-45
2021/03/13 00:23:56;;;;;;;2.97;1.23;;;;;;;;;;1036418;28;20488;-46
2021/03/13 00:24:26;;;;;;;6.57;1.63;;;;;;;;;;1036532;28;20097;-44
2021/03/13 00:24:57;;;;;;;7.87;1.67;;;;;;;;;;1036441;28;20010;-47
2021/03/13 00:25:28;;;;;;;5.80;2.00;;;;;;;;;;1036444;28;20333;-45
2021/03/13 00:25:58;;;;;;;8.60;1.83;;;;;;;;;;1036512;28;20018;-47
2021/03/13 00:26:29;;;;;;;3.77;1.40;;;;;;;;;;1036623;28;20054;-47
2021/03/13 00:26:59;;;;;;;6.67;1.70;;;;;;;;;;1036634;28;20009;-45
2021/03/13 00:27:29;;;;;;;7.40;1.50;;;;;;;;;;1036311;28;20021;-45
2021/03/13 00:27:59;;;;;;;4.10;1.60;;;;;;;;;;1036384;28;20498;-45
2021/03/13 00:28:30;;;;;;;6.70;1.77;;;;;;;;;;1036460;28;20061;-45
2021/03/13 00:29:00;;;;;;;4.77;1.50;;;;;;;;;;1036414;28;20083;-47
2021/03/13 00:29:30;;;;;;;8.40;1.70;;;;;;;;;;1036501;28;20109;-45
2021/03/13 00:30:01;;;;;;;7.40;1.80;;;;;;;;;;1036592;28;20014;-45
2021/03/13 00:30:32;;;;;;;6.00;1.67;;;;;;;;;;1036267;28;20018;-46
2021/03/13 00:31:02;;;;;;;6.60;1.50;;;;;;;;;;1036510;28;20014;-46
2021/03/13 00:31:32;;;;;;;3.47;1.50;;;;;;;;;;1036401;28;20026;-46
2021/03/13 00:32:03;;;;;;;5.37;1.30;;;;;;;;;;1036376;28;20366;-47
2021/03/13 00:32:33;;;;;;;6.47;1.87;;;;;;;;;;1036442;28;20029;-46
2021/03/13 00:33:04;;;;;;;6.83;1.60;;;;;;;;;;1036400;28;20356;-46
2021/03/13 00:33:37;;;;;;;6.40;1.80;;;;;;;;;;1036324;28;20010;-45
2021/03/13 00:34:07;;;;;;;5.03;1.52;;;;;;;;;;1036382;28;20088;-45
2021/03/13 00:34:38;;;;;;;4.40;1.50;;;;;;;;;;1036339;28;20018;-45
2021/03/13 00:35:08;;;;;;;6.17;1.80;;;;;;;;;;1036386;28;20013;-46
2021/03/13 00:35:39;;;;;;;6.47;1.53;;;;;;;;;;1036343;28;20251;-46
2021/03/13 00:36:09;;;;;;;6.97;1.60;;;;;;;;;;1036315;28;20017;-45
2021/03/13 00:36:39;;;;;;;5.37;1.40;;;;;;;;;;1036499;28;20002;-45
2021/03/13 00:37:10;;;;;;;7.20;1.67;;;;;;;;;;1036234;28;20010;-45
2021/03/13 00:37:40;;;;;;;5.30;1.40;;;;;;;;;;1035845;28;20014;-45
2021/03/13 00:38:10;;;;;;;5.60;1.40;;;;;;;;;;1036065;28;20342;-45
2021/03/13 00:38:41;;;;;;;5.90;1.77;;;;;;;;;;1036040;28;20013;-46
2021/03/13 00:39:11;;;;;;;5.63;1.60;;;;;;;;;;1036508;28;20010;-45
2021/03/13 00:39:41;;;;;;;5.17;1.60;;;;;;;;;;1036394;28;20105;-46
2021/03/13 00:40:12;;;;;;;3.93;1.20;;;;;;;;;;1036630;28;20031;-46
2021/03/13 00:40:43;;;;;;;4.93;1.50;;;;;;;;;;1036482;28;20104;-46
2021/03/13 00:41:13;;;;;;;3.80;1.30;;;;;;;;;;1036336;28;20426;-46
2021/03/13 00:41:43;;;;;;;4.03;1.50;;;;;;;;;;1027859;28;20057;-45
2021/03/13 00:42:14;;;;;;;4.37;1.33;;;;;;;;;;1028135;28;20011;-45
2021/03/13 00:42:44;;;;;;;5.13;1.40;;;;;;;;;;1028344;28;20078;-45
2021/03/13 00:43:14;;;;;;;6.47;1.67;;;;;;;;;;1032006;28;20021;-45
2021/03/13 00:43:45;;;;;;;6.27;1.60;;;;;;;;;;1036333;28;20009;-45
2021/03/13 00:44:15;;;;;;;5.63;1.60;;;;;;;;;;1036531;28;20010;-45
2021/03/13 00:44:45;;;;;;;5.03;1.40;;;;;;;;;;1036399;28;20018;-45
2021/03/13 00:45:16;;;;;;;4.80;1.70;;;;;;;;;;1036540;28;20014;-45
2021/03/13 00:45:47;;;;;;;5.78;1.50;;;;;;;;;;1036303;28;20014;-46
2021/03/13 00:46:17;;;;;;;5.83;1.50;;;;;;;;;;1036360;28;20427;-46
2021/03/13 00:46:47;;;;;;;6.87;1.50;;;;;;;;;;1036345;28;20041;-46
2021/03/13 00:47:18;;;;;;;4.43;1.50;;;;;;;;;;1036319;28;20010;-47
2021/03/13 00:47:48;;;;;;;4.93;1.23;;;;;;;;;;1036440;28;20016;-46
2021/03/13 00:48:18;;;;;;;4.17;1.43;;;;;;;;;;1031881;28;20014;-47
2021/03/13 00:48:49;;;;;;;6.40;1.53;;;;;;;;;;1032040;28;20018;-46
2021/03/13 00:49:19;;;;;;;6.63;1.60;;;;;;;;;;1031811;28;20463;-48
2021/03/13 00:49:49;;;;;;;6.67;1.63;;;;;;;;;;1031744;28;20007;-46
2021/03/13 00:50:21;;;;;;;4.20;1.50;;;;;;;;;;1036268;28;20430;-46
2021/03/13 00:50:52;;;;;;;5.00;1.50;;;;;;;;;;1036287;28;20368;-46
2021/03/13 00:51:22;;;;;;;5.80;1.50;;;;;;;;;;1035853;28;20018;-46
2021/03/13 00:51:52;;;;;;;3.17;1.20;;;;;;;;;;1035956;28;20018;-46
2021/03/13 00:52:22;;;;;;;4.20;1.60;;;;;;;;;;1035951;28;20350;-47
2021/03/13 00:52:53;;;;;;;4.33;1.57;;;;;;;;;;1036001;28;20006;-45
2021/03/13 00:53:23;;;;;;;6.17;1.43;;;;;;;;;;1036233;28;20089;-46
2021/03/13 00:53:53;;;;;;;3.47;1.30;;;;;;;;;;1036325;28;20071;-46
2021/03/13 00:54:23;;;;;;;5.17;1.43;;;;;;;;;;1036275;28;20014;-45
2021/03/13 00:54:54;;;;;;;6.37;1.60;;;;;;;;;;1036367;28;20089;-46
2021/03/13 00:55:24;;;;;;;4.33;1.40;;;;;;;;;;1036279;28;20458;-47
2021/03/13 00:55:54;;;;;;;5.10;1.67;;;;;;;;;;1036349;28;20010;-46
2021/03/13 00:56:24;;;;;;;4.07;1.50;;;;;;;;;;1036279;28;20010;-49
2021/03/13 00:56:55;;;;;;;3.57;1.50;;;;;;;;;;1036239;28;20025;-47
2021/03/13 00:57:25;;;;;;;5.07;1.30;;;;;;;;;;1036370;28;20010;-48
2021/03/13 00:57:55;;;;;;;3.73;1.30;;;;;;;;;;1036140;28;20022;-46
2021/03/13 00:58:26;;;;;;;5.63;1.60;;;;;;;;;;1035882;28;20140;-47
2021/03/13 00:58:56;;;;;;;6.87;1.63;;;;;;;;;;1036258;28;20021;-47
2021/03/13 00:59:26;;;;;;;5.87;1.50;;;;;;;;;;1035941;28;20074;-47
2021/03/13 00:59:56;;;;;;;4.63;1.47;;;;;;;;;;1036407;28;20108;-47
2021/03/13 01:00:27;;;;;;;4.57;1.57;;;;;;;;;;1036388;28;20462;-46
2021/03/13 01:00:57;;;;;;;5.93;1.87;;;;;;;;;;1036242;28;20415;-46
2021/03/13 01:01:27;;;;;;;4.90;1.50;;;;;;;;;;1036256;28;20053;-46
2021/03/13 01:01:57;;;;;;;4.77;1.50;;;;;;;;;;1035847;28;20018;-45
2021/03/13 01:02:28;;;;;;;7.17;1.80;;;;;;;;;;1035981;28;20447;-46
2021/03/13 01:02:58;;;;;;;5.67;1.60;;;;;;;;;;1035918;28;20014;-45
2021/03/13 01:03:28;;;;;;;6.10;1.63;;;;;;;;;;1031858;28;20014;-47
2021/03/13 01:03:58;;;;;;;4.47;1.30;;;;;;;;;;1036025;28;20136;-46
2021/03/13 01:04:29;;;;;;;5.00;1.50;;;;;;;;;;1035998;28;20511;-48
2021/03/13 01:04:59;;;;;;;10.60;1.57;;;;;;;;;;1035839;28;20018;-46
2021/03/13 01:05:29;;;;;;;6.13;1.80;;;;;;;;;;1036229;28;20014;-46
2021/03/13 01:06:00;;;;;;;5.00;1.47;;;;;;;;;;1036364;28;20104;-48
2021/03/13 01:06:30;;;;;;;5.67;1.50;;;;;;;;;;1036322;28;20045;-47
2021/03/13 01:07:00;;;;;;;6.63;1.80;;;;;;;;;;1036363;28;20045;-47
2021/03/13 01:07:31;;;;;;;3.10;1.40;;;;;;;;;;1036250;28;20487;-46
2021/03/13 01:08:02;;;;;;;5.00;1.83;;;;;;;;;;1036396;28;20018;-46
2021/03/13 01:08:32;;;;;;;6.57;1.42;;;;;;;;;;1036222;28;20029;-46
2021/03/13 01:09:04;;;;;;;4.10;1.50;;;;;;;;;;1036309;28;20062;-47
2021/03/13 01:09:35;;;;;;;5.43;1.50;;;;;;;;;;1036301;28;20014;-46
2021/03/13 01:10:08;;;;;;;4.03;1.43;;;;;;;;;;1036420;28;20093;-46
2021/03/13 01:10:38;;;;;;;3.80;1.25;;;;;;;;;;1036365;28;20030;-49
2021/03/13 01:11:09;;;;;;;7.47;1.57;;;;;;;;;;1035773;28;20026;-48
2021/03/13 01:11:39;;;;;;;4.80;1.53;;;;;;;;;;1035914;28;20010;-46
2021/03/13 01:12:09;;;;;;;4.77;1.67;;;;;;;;;;1036091;28;20512;-47
2021/03/13 01:12:40;;;;;;;5.63;1.73;;;;;;;;;;1031940;28;20011;-45
2021/03/13 01:13:10;;;;;;;4.93;1.60;;;;;;;;;;1036049;28;20006;-47
2021/03/13 01:13:40;;;;;;;6.10;1.80;;;;;;;;;;1035789;28;20495;-45
2021/03/13 01:14:11;;;;;;;6.13;1.40;;;;;;;;;;1031973;28;20032;-45
2021/03/13 01:14:41;;;;;;;5.27;1.77;;;;;;;;;;1036046;28;20335;-45
2021/03/13 01:15:12;;;;;;;2.87;1.23;;;;;;;;;;1035939;28;20005;-47
2021/03/13 01:15:44;;;;;;;5.55;1.50;;;;;;;;;;1035898;28;20014;-46
2021/03/13 01:16:14;;;;;;;6.43;1.58;;;;;;;;;;1036325;28;20018;-45
2021/03/13 01:16:44;;;;;;;4.87;1.60;;;;;;;;;;1036315;28;20006;-45
2021/03/13 01:17:14;;;;;;;4.07;1.27;;;;;;;;;;1035904;28;20435;-46
2021/03/13 01:17:45;;;;;;;2.90;1.20;;;;;;;;;;1036126;28;20093;-44
2021/03/13 01:18:18;;;;;;;3.73;1.43;;;;;;;;;;1036077;28;20341;-44
2021/03/13 01:18:48;;;;;;;5.20;1.65;;;;;;;;;;1035982;28;20509;-44
2021/03/13 01:19:19;;;;;;;4.13;1.43;;;;;;;;;;1036256;28;20018;-45
2021/03/13 01:19:49;;;;;;;5.40;1.70;;;;;;;;;;1036296;28;20009;-46
2021/03/13 01:20:19;;;;;;;6.90;1.73;;;;;;;;;;1036123;28;20097;-45
2021/03/13 01:20:50;;;;;;;4.83;1.40;;;;;;;;;;1035991;28;20006;-45
2021/03/13 01:21:20;;;;;;;4.80;1.50;;;;;;;;;;1035877;28;20017;-45
2021/03/13 01:21:50;;;;;;;3.20;1.60;;;;;;;;;;1036115;28;20088;-47
2021/03/13 01:22:20;;;;;;;6.30;1.60;;;;;;;;;;1036537;28;20332;-45
2021/03/13 01:22:51;;;;;;;4.93;1.30;;;;;;;;;;1036344;28;20010;-45
2021/03/13 01:23:21;;;;;;;8.57;1.87;;;;;;;;;;1036241;28;20033;-45
2021/03/13 01:23:52;;;;;;;4.53;1.30;;;;;;;;;;1036150;28;20049;-46
2021/03/13 01:24:22;;;;;;;3.73;1.30;;;;;;;;;;1036290;28;20009;-46
2021/03/13 01:24:52;;;;;;;5.37;1.40;;;;;;;;;;1036263;28;20013;-47
2021/03/13 01:25:22;;;;;;;4.27;1.30;;;;;;;;;;1036298;28;20010;-45
2021/03/13 01:25:53;;;;;;;5.00;1.60;;;;;;;;;;1036239;28;20014;-46
2021/03/13 01:26:23;;;;;;;5.10;1.70;;;;;;;;;;1036219;28;20101;-45
2021/03/13 01:26:53;;;;;;;4.77;1.27;;;;;;;;;;1036334;28;20006;-45
2021/03/13 01:27:23;;;;;;;5.30;1.60;;;;;;;;;;1036264;28;20010;-46
2021/03/13 01:27:54;;;;;;;5.23;1.30;;;;;;;;;;1036234;28;20010;-46
2021/03/13 01:28:24;;;;;;;4.33;1.57;;;;;;;;;;1036286;28;20010;-45
2021/03/13 01:28:54;;;;;;;4.63;1.40;;;;;;;;;;1036240;28;20487;-47
2021/03/13 01:29:24;;;;;;;4.93;1.50;;;;;;;;;;1036361;28;20010;-46
2021/03/13 01:29:55;;;;;;;5.53;1.80;;;;;;;;;;1036165;28;20408;-46
2021/03/13 01:30:25;;;;;;;5.10;1.40;;;;;;;;;;1035894;28;20072;-45
2021/03/13 01:30:55;;;;;;;7.17;1.63;;;;;;;;;;1035815;28;20121;-48
2021/03/13 01:31:26;;;;;;;8.40;1.83;;;;;;;;;;1035795;28;20034;-46
2021/03/13 01:32:02;;;;;;;5.23;1.53;;;;;;;;;;1035889;28;20037;-46
2021/03/13 01:32:33;;;;;;;6.82;1.75;;;;;;;;;;1036268;28;20014;-45
2021/03/13 01:33:03;;;;;;;4.43;1.53;;;;;;;;;;1036296;28;20478;-46
2021/03/13 01:33:33;;;;;;;4.20;1.33;;;;;;;;;;1036139;28;20068;-46
2021/03/13 01:34:03;;;;;;;4.97;1.60;;;;;;;;;;1036122;28;20072;-47
2021/03/13 01:34:34;;;;;;;5.50;1.50;;;;;;;;;;1036305;28;20017;-45
2021/03/13 01:35:04;;;;;;;4.70;1.50;;;;;;;;;;1036296;28;20089;-46
2021/03/13 01:35:35;;;;;;;4.63;1.60;;;;;;;;;;1036174;28;20036;-47
2021/03/13 01:36:05;;;;;;;5.60;1.60;;;;;;;;;;1036280;28;20041;-47
2021/03/13 01:36:35;;;;;;;5.30;1.60;;;;;;;;;;1036627;28;20012;-46
2021/03/13 01:37:05;;;;;;;5.30;1.40;;;;;;;;;;1036207;28;20010;-48
2021/03/13 01:37:36;;;;;;;5.73;1.40;;;;;;;;;;1036018;28;20042;-46
2021/03/13 01:38:06;;;;;;;5.00;1.77;;;;;;;;;;1035735;28;20006;-46
2021/03/13 01:38:36;;;;;;;5.20;1.40;;;;;;;;;;1036090;28;20022;-45
2021/03/13 01:39:07;;;;;;;5.37;1.70;;;;;;;;;;1035829;28;20059;-47
2021/03/13 01:39:38;;;;;;;3.42;1.20;;;;;;;;;;1035812;28;20126;-47
2021/03/13 01:40:10;;;;;;;6.20;1.63;;;;;;;;;;1035825;28;20089;-46
2021/03/13 01:40:40;;;;;;;4.97;1.67;;;;;;;;;;1036083;28;20512;-46
2021/03/13 01:41:16;;;;;;;4.33;1.37;;;;;;;;;;1035813;28;20016;-46
2021/03/13 01:41:47;;;;;;;5.07;1.50;;;;;;;;;;1035732;28;20032;-46
2021/03/13 01:42:17;;;;;;;4.70;1.57;;;;;;;;;;1036182;28;20010;-47
2021/03/13 01:42:48;;;;;;;6.70;1.43;;;;;;;;;;1036191;28;20002;-46
2021/03/13 01:43:18;;;;;;;4.10;1.57;;;;;;;;;;1036035;28;20014;-47
2021/03/13 01:43:48;;;;;;;7.60;1.73;;;;;;;;;;1036105;28;20053;-46
2021/03/13 01:44:18;;;;;;;4.10;1.60;;;;;;;;;;1036138;28;20002;-46
2021/03/13 01:44:49;;;;;;;5.20;1.53;;;;;;;;;;1036136;28;20013;-46
2021/03/13 01:45:21;;;;;;;5.17;1.30;;;;;;;;;;1036172;28;20010;-46
2021/03/13 01:45:51;;;;;;;4.05;1.70;;;;;;;;;;1036083;28;20006;-48
2021/03/13 01:46:21;;;;;;;7.37;1.53;;;;;;;;;;1036146;28;20018;-46
2021/03/13 01:46:52;;;;;;;4.67;1.37;;;;;;;;;;1036126;28;20101;-46
2021/03/13 01:47:22;;;;;;;5.70;1.77;;;;;;;;;;1036136;28;20075;-46
2021/03/13 01:47:53;;;;;;;6.27;1.63;;;;;;;;;;1036110;28;20565;-48
2021/03/13 01:48:29;;;;;;;6.30;1.67;;;;;;;;;;1036190;28;20093;-46
2021/03/13 01:48:59;;;;;;;7.03;1.70;;;;;;;;;;1036131;28;20010;-45
2021/03/13 01:49:30;;;;;;;3.80;1.30;;;;;;;;;;1036046;28;20030;-46
2021/03/13 01:50:01;;;;;;;5.30;1.60;;;;;;;;;;1035744;28;20297;-47
2021/03/13 01:50:31;;;;;;;5.70;1.87;;;;;;;;;;1027700;28;20046;-46
2021/03/13 01:51:01;;;;;;;6.10;1.50;;;;;;;;;;1027902;28;20013;-46
2021/03/13 01:51:32;;;;;;;7.03;1.77;;;;;;;;;;1023988;28;20022;-47
2021/03/13 01:52:02;;;;;;;5.90;1.60;;;;;;;;;;1027838;28;20484;-45
2021/03/13 01:52:32;;;;;;;4.73;1.40;;;;;;;;;;1035908;28;20021;-45
2021/03/13 01:53:03;;;;;;;5.57;1.63;;;;;;;;;;1035996;28;20033;-45
2021/03/13 01:53:33;;;;;;;4.80;1.30;;;;;;;;;;1035672;28;20013;-45
2021/03/13 01:54:03;;;;;;;5.87;1.60;;;;;;;;;;1035822;28;20018;-47
2021/03/13 01:54:34;;;;;;;5.50;1.60;;;;;;;;;;1035829;28;20552;-45
2021/03/13 01:55:05;;;;;;;3.40;1.47;;;;;;;;;;1032375;28;20026;-45
2021/03/13 01:55:35;;;;;;;7.18;1.90;;;;;;;;;;1035770;28;20093;-46
2021/03/13 01:56:06;;;;;;;5.00;1.50;;;;;;;;;;1031663;28;20411;-45
2021/03/13 01:56:36;;;;;;;5.93;1.50;;;;;;;;;;1028216;28;20015;-46
2021/03/13 01:57:08;;;;;;;7.43;1.70;;;;;;;;;;1031920;28;20169;-45
2021/03/13 01:57:38;;;;;;;4.93;1.60;;;;;;;;;;1032011;28;20410;-46
2021/03/13 01:58:09;;;;;;;4.97;1.50;;;;;;;;;;1036002;28;20022;-46
2021/03/13 01:58:39;;;;;;;6.93;1.83;;;;;;;;;;1035899;28;20104;-45
2021/03/13 01:59:09;;;;;;;6.83;1.80;;;;;;;;;;1035945;28;20148;-45
2021/03/13 01:59:40;;;;;;;6.63;1.87;;;;;;;;;;1031697;28;20064;-46
2021/03/13 02:00:12;;;;;;;7.10;1.57;;;;;;;;;;1032494;28;20418;-48
2021/03/13 02:00:42;;;;;;;7.25;1.85;;;;;;;;;;1035774;28;20060;-45
2021/03/13 02:01:12;;;;;;;5.50;1.70;;;;;;;;;;1035965;28;20160;-46
2021/03/13 02:01:43;;;;;;;3.70;1.23;;;;;;;;;;1036151;28;20144;-49
2021/03/13 02:02:13;;;;;;;5.07;1.50;;;;;;;;;;1036688;28;20025;-47
2021/03/13 02:02:44;;;;;;;8.17;2.07;;;;;;;;;;1036881;28;20026;-45
2021/03/13 02:03:14;;;;;;;7.20;1.50;;;;;;;;;;1037015;28;20371;-46
2021/03/13 02:03:44;;;;;;;4.90;1.50;;;;;;;;;;1036600;28;20036;-45
2021/03/13 02:04:15;;;;;;;5.23;1.60;;;;;;;;;;1036854;28;20010;-45
2021/03/13 02:04:45;;;;;;;3.80;1.60;;;;;;;;;;1036727;28;20017;-45
2021/03/13 02:05:17;;;;;;;5.83;1.77;;;;;;;;;;1036919;28;20533;-46
2021/03/13 02:05:48;;;;;;;4.45;1.50;;;;;;;;;;1036846;28;20475;-46
2021/03/13 02:06:19;;;;;;;6.57;1.55;;;;;;;;;;1036791;28;20067;-45
2021/03/13 02:06:56;;;;;;;5.63;1.57;;;;;;;;;;1037006;28;20092;-45
2021/03/13 02:07:32;;;;;;;6.78;1.52;;;;;;;;;;1036502;28;20430;-45
2021/03/13 02:08:08;;;;;;;7.20;1.70;;;;;;;;;;1036504;28;20423;-46
2021/03/13 02:08:41;;;;;;;4.50;1.70;;;;;;;;;;1036475;28;20037;-44
2021/03/13 02:09:26;;;;;;;6.22;2.00;;;;;;;;;;1036598;28;20025;-45
2021/03/13 02:10:03;;;;;;;5.85;1.63;;;;;;;;;;1036576;28;20033;-45
2021/03/13 02:10:36;;;;;;;4.63;1.58;;;;;;;;;;1032530;28;20014;-47
2021/03/13 02:11:11;;;;;;;6.28;1.58;;;;;;;;;;1028806;28;20498;-46
2021/03/13 02:11:44;;;;;;;7.45;1.98;;;;;;;;;;1030299;28;20372;-45
2021/03/13 02:12:34;;;;;;;8.50;1.60;;;;;;;;;;1033916;28;20027;-46
2021/03/13 02:13:05;;;;;;;;;;;;;;;;;;1035626;28;20123;-46
2021/03/13 02:13:49;;;;;;;7.60;1.60;;;;;;;;;;1036377;28;20346;-46
2021/03/13 02:14:26;;;;;;;6.97;1.90;;;;;;;;;;1032473;28;20011;-46
2021/03/13 02:14:56;;;;;;;7.35;1.60;;;;;;;;;;1035150;28;20327;-47
2021/03/13 02:15:26;;;;;;;4.37;1.50;;;;;;;;;;1036347;28;20041;-45
2021/03/13 02:16:00;;;;;;;6.00;1.50;;;;;;;;;;1036738;28;20001;-45
2021/03/13 02:16:53;;;;;;;5.35;1.67;;;;;;;;;;1036733;28;20068;-46
2021/03/13 02:17:32;;;;;;;5.85;1.70;;;;;;;;;;1036290;28;20331;-46
2021/03/13 02:18:13;;;;;;;8.30;1.90;;;;;;;;;;1032206;28;20018;-45
2021/03/13 02:18:43;;;;;;;;;;;;;;;;;;1028812;28;20026;-46
2021/03/13 02:19:22;;;;;;;5.37;1.80;;;;;;;;;;1028299;28;19951;-46
2021/03/13 02:20:22;;;;;;;5.05;1.30;;;;;;;;;;1030883;28;20023;-46
2021/03/13 02:21:01;;;;;;;7.55;1.85;;;;;;;;;;1024308;29;20054;-46
2021/03/13 02:21:33;;;;;;;6.80;2.08;;;;;;;;;;1036348;28;20332;-46
2021/03/13 02:22:06;;;;;;;6.18;1.70;;;;;;;;;;1032297;28;20018;-46
2021/03/13 02:22:37;;;;;;;4.15;1.25;;;;;;;;;;1032207;28;20069;-45
2021/03/13 02:23:07;;;;;;;4.97;1.73;;;;;;;;;;1032214;28;20467;-46
2021/03/13 02:23:49;;;;;;;8.50;1.73;;;;;;;;;;1028493;28;20015;-45
2021/03/13 02:24:20;;;;;;;6.28;1.80;;;;;;;;;;1032290;28;20487;-46
2021/03/13 02:25:06;;;;;;;4.32;1.40;;;;;;;;;;1032328;28;20428;-47
2021/03/13 02:25:54;;;;;;;6.20;1.80;;;;;;;;;;1035779;28;20101;-45
2021/03/13 02:26:27;;;;;;;5.10;1.45;;;;;;;;;;1036316;28;20129;-45
2021/03/13 02:26:57;;;;;;;5.55;1.40;;;;;;;;;;1032145;28;20577;-47
2021/03/13 02:27:29;;;;;;;6.03;1.50;;;;;;;;;;1032385;28;20085;-46
2021/03/13 02:28:02;;;;;;;5.32;1.40;;;;;;;;;;1032240;28;20046;-45
2021/03/13 02:28:38;;;;;;;6.05;2.08;;;;;;;;;;1032861;28;20022;-45
2021/03/13 02:29:26;;;;;;;7.03;1.60;;;;;;;;;;1036322;28;20022;-45
2021/03/13 02:30:03;;;;;;;4.85;1.55;;;;;;;;;;1036193;28;20057;-45
2021/03/13 02:30:33;;;;;;;4.07;1.48;;;;;;;;;;1036303;28;20101;-46
2021/03/13 02:31:04;;;;;;;4.70;1.50;;;;;;;;;;1036353;28;20390;-46
2021/03/13 02:31:34;;;;;;;7.57;2.07;;;;;;;;;;1032317;28;20094;-45
2021/03/13 02:32:24;;;;;;;5.87;1.77;;;;;;;;;;1032171;28;20399;-46
2021/03/13 02:33:16;;;;;;;5.35;1.58;;;;;;;;;;1032279;28;20053;-46
2021/03/13 02:33:46;;;;;;;7.22;1.70;;;;;;;;;;1033448;28;20034;-45
2021/03/13 02:34:19;;;;;;;3.27;1.17;;;;;;;;;;1032212;28;20498;-45
2021/03/13 02:34:50;;;;;;;7.60;1.60;;;;;;;;;;1025167;28;20059;-45
2021/03/13 02:35:22;;;;;;;5.60;1.80;;;;;;;;;;1024237;29;20124;-45
2021/03/13 02:35:57;;;;;;;6.20;1.60;;;;;;;;;;1020699;29;20047;-44
2021/03/13 02:36:27;;;;;;;4.88;1.75;;;;;;;;;;1024181;29;20011;-45
2021/03/13 02:36:58;;;;;;;5.30;1.40;;;;;;;;;;1025004;28;20527;-46
2021/03/13 02:37:29;;;;;;;7.17;1.93;;;;;;;;;;1028920;28;20019;-44
2021/03/13 02:38:00;;;;;;;5.43;1.50;;;;;;;;;;1032220;28;20022;-45
2021/03/13 02:38:42;;;;;;;4.03;1.55;;;;;;;;;;1036418;28;20097;-44
2021/03/13 02:39:13;;;;;;;5.40;1.52;;;;;;;;;;1036293;28;20072;-45
2021/03/13 02:39:44;;;;;;;6.05;1.70;;;;;;;;;;1036110;28;20010;-46
2021/03/13 02:40:16;;;;;;;6.23;1.50;;;;;;;;;;1032240;28;20053;-46
2021/03/13 02:40:46;;;;;;;5.53;1.48;;;;;;;;;;1028146;28;20705;-45
2021/03/13 02:41:22;;;;;;;5.73;1.70;;;;;;;;;;1028551;28;20023;-45
2021/03/13 02:41:53;;;;;;;4.90;1.40;;;;;;;;;;1029193;28;20042;-44
2021/03/13 02:42:23;;;;;;;4.03;1.43;;;;;;;;;;1028946;28;20110;-44
2021/03/13 02:42:54;;;;;;;4.20;1.60;;;;;;;;;;1032196;28;20062;-44
2021/03/13 02:43:24;;;;;;;8.95;1.70;;;;;;;;;;1028005;28;20468;-44
2021/03/13 02:43:57;;;;;;;5.57;1.50;;;;;;;;;;1028293;28;20010;-44
2021/03/13 02:44:27;;;;;;;6.68;2.47;;;;;;;;;;1028144;28;20057;-44
2021/03/13 02:44:58;;;;;;;8.73;1.70;;;;;;;;;;1028602;28;20018;-44
2021/03/13 02:45:29;;;;;;;7.10;1.67;;;;;;;;;;1031773;28;20456;-44
2021/03/13 02:46:00;;;;;;;4.45;1.50;;;;;;;;;;1028385;28;20422;-45
2021/03/13 02:46:30;;;;;;;6.13;1.50;;;;;;;;;;1028408;28;20046;-45
2021/03/13 02:47:00;;;;;;;5.03;1.60;;;;;;;;;;1028282;28;20050;-44
2021/03/13 02:47:31;;;;;;;4.13;1.70;;;;;;;;;;1028131;28;20065;-45
2021/03/13 02:48:02;;;;;;;7.03;1.63;;;;;;;;;;1028078;28;20010;-45
2021/03/13 02:48:32;;;;;;;4.53;1.60;;;;;;;;;;1032182;28;20022;-44
2021/03/13 02:49:03;;;;;;;6.90;1.70;;;;;;;;;;1032492;28;20370;-44
2021/03/13 02:49:33;;;;;;;6.10;1.90;;;;;;;;;;1032175;28;20022;-44
2021/03/13 02:50:04;;;;;;;7.07;1.60;;;;;;;;;;1032343;28;20014;-46
2021/03/13 02:50:35;;;;;;;4.20;1.70;;;;;;;;;;1032559;28;20480;-45
2021/03/13 02:51:05;;;;;;;4.53;1.57;;;;;;;;;;1032080;28;20015;-44
2021/03/13 02:51:36;;;;;;;4.57;1.60;;;;;;;;;;1028169;28;20019;-45
2021/03/13 02:52:06;;;;;;;3.63;1.47;;;;;;;;;;1028184;28;20011;-44
2021/03/13 02:52:36;;;;;;;6.17;1.53;;;;;;;;;;1028054;28;20510;-45
2021/03/13 02:53:06;;;;;;;5.90;1.80;;;;;;;;;;1032113;28;20456;-45
2021/03/13 02:53:37;;;;;;;6.70;1.53;;;;;;;;;;1032042;28;20014;-46
2021/03/13 02:54:07;;;;;;;5.17;1.40;;;;;;;;;;1032134;28;20057;-45
2021/03/13 02:54:38;;;;;;;7.63;1.83;;;;;;;;;;1032185;28;20118;-45
2021/03/13 02:55:11;;;;;;;5.20;1.60;;;;;;;;;;1028293;28;20464;-45
2021/03/13 02:55:42;;;;;;;6.55;1.70;;;;;;;;;;1036326;28;20493;-46
2021/03/13 02:56:12;;;;;;;5.50;1.50;;;;;;;;;;1032609;28;20010;-46
2021/03/13 02:56:42;;;;;;;5.60;1.70;;;;;;;;;;1032704;28;20007;-46
2021/03/13 02:57:14;;;;;;;5.77;1.80;;;;;;;;;;1032303;28;20093;-45
2021/03/13 02:57:44;;;;;;;4.93;1.50;;;;;;;;;;1032535;28;20010;-45
2021/03/13 02:58:15;;;;;;;5.53;1.60;;;;;;;;;;1036437;28;20081;-45
2021/03/13 02:58:48;;;;;;;5.27;1.30;;;;;;;;;;1032583;28;20011;-45
2021/03/13 02:59:18;;;;;;;7.65;1.88;;;;;;;;;;1036244;28;20009;-46
2021/03/13 02:59:49;;;;;;;3.60;1.30;;;;;;;;;;1032271;28;20412;-45
2021/03/13 03:00:19;;;;;;;4.47;1.80;;;;;;;;;;1028673;28;20063;-46
2021/03/13 03:00:50;;;;;;;3.77;1.43;;;;;;;;;;1032281;28;20064;-45
2021/03/13 03:01:20;;;;;;;10.70;1.40;;;;;;;;;;1028265;28;20559;-44
2021/03/13 03:01:50;;;;;;;7.63;1.47;;;;;;;;;;1032549;28;20062;-46
2021/03/13 03:02:20;;;;;;;5.17;1.60;;;;;;;;;;1032229;28;20007;-45
2021/03/13 03:02:54;;;;;;;4.30;1.70;;;;;;;;;;1032415;28;20379;-45
2021/03/13 03:03:24;;;;;;;4.13;1.40;;;;;;;;;;1036316;28;20012;-47
2021/03/13 03:03:55;;;;;;;8.37;2.10;;;;;;;;;;1036550;28;20010;-44
2021/03/13 03:04:25;;;;;;;4.63;1.53;;;;;;;;;;1036771;28;20101;-46
2021/03/13 03:04:55;;;;;;;9.23;2.40;;;;;;;;;;1036657;28;20010;-45
2021/03/13 03:05:26;;;;;;;5.10;1.77;;;;;;;;;;1036317;28;20005;-45
2021/03/13 03:05:57;;;;;;;4.47;1.40;;;;;;;;;;1032321;28;20010;-44
2021/03/13 03:06:27;;;;;;;5.93;1.80;;;;;;;;;;1032236;28;20011;-44
2021/03/13 03:06:58;;;;;;;5.43;1.47;;;;;;;;;;1028459;28;20006;-45
2021/03/13 03:07:29;;;;;;;5.80;1.50;;;;;;;;;;1032441;28;20341;-44
2021/03/13 03:08:00;;;;;;;4.37;1.40;;;;;;;;;;1028313;28;20025;-45
2021/03/13 03:08:30;;;;;;;4.47;1.50;;;;;;;;;;1024548;28;20469;-45
2021/03/13 03:09:00;;;;;;;4.33;1.37;;;;;;;;;;1028225;28;20007;-45